Quick Links (Output Below):   Max & Min Temps   /   Climate Reports   /   Zone Forecasts
River Forecasts   /   Forestry Forecasts   /   Aviation Forecasts   /   Radars   /   Features

Terminal Aerodrome Forecast (Texarkana)

Pick a Site:
Arkadelphia | El Dorado | Fayetteville | Fort Smith | Harrison | Highfill | Hot Springs | Jonesboro
Little Rock | Monticello | Mountain Home | Pine Bluff | Texarkana
 Forecast 

KTXK 260535Z 2606/2706 21004KT P6SM SKC
     FM261500 VRB03KT P6SM FEW030
     FM261800 12007KT P6SM SCT040
     FM270300 09010KT P6SM VCSH BKN050 OVC120=


 Latest METARs (Observations) 
How to Decode METARs
08Z KTXK 260753Z AUTO 22004KT 10SM CLR 17/13 A2967 RMK AO2 SLP041
         T01670133
         
07Z KTXK 260653Z AUTO 21004KT 10SM CLR 16/14 A2968 RMK AO2 SLP045
         T01610139
         
06Z KTXK 260553Z AUTO 21005KT 10SM CLR 18/13 A2968 RMK AO2 SLP047
         T01830133 10283 20172 403000156 51005
         
05Z KTXK 260453Z AUTO 21004KT 10SM CLR 19/13 A2968 RMK AO2 SLP046
         T01940133
         
04Z KTXK 260353Z AUTO 23004KT 10SM CLR 19/14 A2968 RMK AO2 SLP047
         T01890139
         
03Z KTXK 260253Z AUTO 21004KT 10SM CLR 22/13 A2967 RMK AO2 SLP042
         T02170128 53016
         
02Z KTXK 260153Z 24004KT 10SM CLR 23/13 A2965 RMK AO2 SLP037
         T02280128
         
01Z KTXK 260053Z 23004KT 10SM CLR 25/13 A2963 RMK AO2 SLP030
         T02500128
         
00Z KTXK 252353Z 23009KT 10SM CLR 28/12 A2962 RMK AO2 SLP025 T02780122
         10300 20278 55002
         
***** Today's Observations (Above) *****


23Z KTXK 252253Z 23012KT 10SM CLR 29/11 A2961 RMK AO2 SLP023
         T02940111
         
***** Yesterday's Observations (Above) *****


Back to Main Page
http://www.srh.noaa.gov/lzk/qfcst.php

USA.gov is the U.S. government's official web portal to all federal, state and local government web resources and services.